Time;durP1;ratioP1;P1;durP2;ratioP2;P2;SDS_P1;SDS_P2;PMS_P1;PMS_P2;Temp;Humidity;BMP_temperature;BMP_pressure;BME280_temperature;BME280_humidity;BME280_pressure;Samples;Min_cycle;Max_cycle;Signal;HPM_P1;HPM_P2
2024/01/27 00:02:12;;;;;;;14.68;4.82;;;;;;;;;;5042254;28;20076;-65
2024/01/27 00:04:38;;;;;;;8.23;4.85;;;;;;;;;;5053436;28;20123;-65
2024/01/27 00:07:03;;;;;;;15.68;5.50;;;;;;;;;;5053971;28;20032;-68
2024/01/27 00:09:28;;;;;;;18.83;5.57;;;;;;;;;;5063950;28;20015;-67
2024/01/27 00:11:54;;;;;;;14.55;4.43;;;;;;;;;;5058399;28;20060;-66
2024/01/27 00:14:19;;;;;;;17.92;4.82;;;;;;;;;;5055273;28;20123;-67
2024/01/27 00:16:44;;;;;;;20.77;4.35;;;;;;;;;;5054628;28;20019;-67
2024/01/27 00:19:09;;;;;;;11.15;4.75;;;;;;;;;;5057883;28;20031;-67
2024/01/27 00:21:35;;;;;;;13.02;4.55;;;;;;;;;;5064621;28;20050;-67
2024/01/27 00:24:03;;;;;;;15.88;5.68;;;;;;;;;;5061870;28;20024;-67
2024/01/27 00:26:28;;;;;;;12.77;5.70;;;;;;;;;;5056846;28;20074;-66
2024/01/27 00:28:53;;;;;;;10.85;5.60;;;;;;;;;;5051583;28;20940;-66
2024/01/27 00:31:19;;;;;;;10.93;5.03;;;;;;;;;;5045831;28;20024;-66
2024/01/27 00:33:44;;;;;;;13.25;4.78;;;;;;;;;;5057845;28;20878;-66
2024/01/27 00:36:09;;;;;;;15.07;5.43;;;;;;;;;;5050476;28;20020;-66
2024/01/27 00:38:35;;;;;;;10.65;4.97;;;;;;;;;;5061576;28;20049;-66
2024/01/27 00:41:00;;;;;;;12.02;5.18;;;;;;;;;;5061887;28;20020;-66
2024/01/27 00:43:25;;;;;;;21.17;6.13;;;;;;;;;;5066441;28;20145;-66
2024/01/27 00:45:50;;;;;;;11.30;4.80;;;;;;;;;;5055370;28;20135;-66
2024/01/27 00:48:16;;;;;;;12.98;5.18;;;;;;;;;;5061795;28;20027;-66
2024/01/27 00:50:41;;;;;;;18.77;4.90;;;;;;;;;;5057380;28;20082;-66
2024/01/27 00:53:06;;;;;;;12.50;4.85;;;;;;;;;;5056679;28;20016;-66
2024/01/27 00:55:31;;;;;;;8.80;4.05;;;;;;;;;;5054692;28;20054;-66
2024/01/27 00:57:56;;;;;;;18.35;5.28;;;;;;;;;;5062890;28;20861;-66
2024/01/27 01:00:22;;;;;;;10.07;5.05;;;;;;;;;;5054143;28;20843;-66
2024/01/27 01:02:47;;;;;;;7.88;4.30;;;;;;;;;;5051488;28;20024;-66
2024/01/27 01:05:12;;;;;;;13.80;4.85;;;;;;;;;;5058668;28;20012;-66
2024/01/27 01:07:38;;;;;;;14.88;4.90;;;;;;;;;;5062872;28;20062;-65
2024/01/27 01:10:04;;;;;;;13.10;3.92;;;;;;;;;;5054328;28;20043;-66
2024/01/27 01:12:29;;;;;;;14.27;4.30;;;;;;;;;;5063917;28;20026;-66
2024/01/27 01:14:54;;;;;;;9.85;4.43;;;;;;;;;;5055570;28;20024;-66
2024/01/27 01:17:19;;;;;;;13.48;4.70;;;;;;;;;;5052836;28;20996;-66
2024/01/27 01:19:45;;;;;;;12.00;4.85;;;;;;;;;;5053438;28;20016;-66
2024/01/27 01:22:10;;;;;;;17.80;4.55;;;;;;;;;;5061531;28;20055;-66
2024/01/27 01:24:36;;;;;;;11.55;4.18;;;;;;;;;;5062483;28;20023;-66
2024/01/27 01:27:01;;;;;;;9.52;4.25;;;;;;;;;;5057988;28;20023;-66
2024/01/27 01:29:26;;;;;;;12.27;4.32;;;;;;;;;;5057305;28;20034;-66
2024/01/27 01:31:52;;;;;;;12.02;4.20;;;;;;;;;;5060054;28;21016;-66
2024/01/27 01:34:17;;;;;;;11.73;4.32;;;;;;;;;;5049335;28;20780;-66
2024/01/27 01:36:42;;;;;;;8.73;3.85;;;;;;;;;;5053330;28;20016;-66
2024/01/27 01:39:09;;;;;;;10.15;4.03;;;;;;;;;;5063033;28;20020;-66
2024/01/27 01:41:35;;;;;;;16.17;5.22;;;;;;;;;;5052250;28;20028;-66
2024/01/27 01:44:00;;;;;;;10.57;4.85;;;;;;;;;;5053294;28;20092;-66
2024/01/27 01:46:25;;;;;;;21.17;5.63;;;;;;;;;;5065417;28;20028;-66
2024/01/27 01:48:50;;;;;;;13.35;3.60;;;;;;;;;;5061184;28;20034;-66
2024/01/27 01:51:19;;;;;;;13.88;4.47;;;;;;;;;;5062640;28;21024;-66
2024/01/27 01:53:47;;;;;;;10.38;4.22;;;;;;;;;;5061066;28;20905;-66
2024/01/27 01:56:13;;;;;;;11.73;5.07;;;;;;;;;;5055160;28;20134;-65
2024/01/27 01:58:39;;;;;;;16.75;4.32;;;;;;;;;;5063002;28;20023;-66
2024/01/27 02:01:04;;;;;;;7.45;4.15;;;;;;;;;;5058894;28;20078;-66
2024/01/27 02:03:29;;;;;;;13.57;4.90;;;;;;;;;;5049279;28;20079;-66
2024/01/27 02:05:55;;;;;;;13.90;3.78;;;;;;;;;;5058604;28;20035;-65
2024/01/27 02:08:20;;;;;;;9.80;4.68;;;;;;;;;;5050490;28;20973;-65
2024/01/27 02:10:46;;;;;;;12.75;4.75;;;;;;;;;;5059227;28;20038;-65
2024/01/27 02:13:21;;;;;;;13.07;4.30;;;;;;;;;;5048528;28;20863;-65
2024/01/27 02:15:47;;;;;;;11.77;3.67;;;;;;;;;;5050383;28;20126;-65
2024/01/27 02:18:13;;;;;;;8.60;4.60;;;;;;;;;;5059412;28;20190;-65
2024/01/27 02:20:38;;;;;;;8.40;4.00;;;;;;;;;;5060358;28;20803;-65
2024/01/27 02:23:04;;;;;;;12.95;4.47;;;;;;;;;;5054169;28;20871;-65
2024/01/27 02:25:30;;;;;;;10.23;3.80;;;;;;;;;;5061517;28;20896;-66
2024/01/27 02:27:55;;;;;;;12.00;4.05;;;;;;;;;;5061034;28;20119;-66
2024/01/27 02:30:20;;;;;;;11.80;4.15;;;;;;;;;;5051858;28;20352;-66
2024/01/27 02:32:45;;;;;;;8.35;3.30;;;;;;;;;;5049277;28;20016;-66
2024/01/27 02:35:11;;;;;;;7.65;3.50;;;;;;;;;;5050656;28;20130;-66
2024/01/27 02:37:36;;;;;;;16.60;4.68;;;;;;;;;;5063169;28;20036;-66
2024/01/27 02:40:01;;;;;;;10.70;4.20;;;;;;;;;;5053651;28;20045;-66
2024/01/27 02:42:26;;;;;;;15.05;4.28;;;;;;;;;;5058922;28;20285;-66
2024/01/27 02:44:52;;;;;;;12.43;4.68;;;;;;;;;;5051647;28;20816;-66
2024/01/27 02:47:17;;;;;;;10.63;3.67;;;;;;;;;;5056413;28;20804;-66
2024/01/27 02:49:42;;;;;;;9.73;4.53;;;;;;;;;;5056502;28;20020;-66
2024/01/27 02:52:08;;;;;;;13.10;4.78;;;;;;;;;;5053865;28;20277;-66
2024/01/27 02:54:34;;;;;;;20.38;4.88;;;;;;;;;;5061032;28;20026;-66
2024/01/27 02:56:59;;;;;;;10.32;3.60;;;;;;;;;;5056030;28;20024;-66
2024/01/27 02:59:24;;;;;;;13.90;5.05;;;;;;;;;;5047983;28;20057;-66
2024/01/27 03:01:49;;;;;;;9.70;4.07;;;;;;;;;;5063607;28;20058;-65
2024/01/27 03:04:15;;;;;;;15.98;4.72;;;;;;;;;;5047980;28;21031;-65
2024/01/27 03:06:40;;;;;;;14.70;4.97;;;;;;;;;;5059894;28;20097;-65
2024/01/27 03:09:05;;;;;;;8.30;4.28;;;;;;;;;;5053265;28;20418;-65
2024/01/27 03:11:31;;;;;;;11.07;4.47;;;;;;;;;;5057686;28;20076;-65
2024/01/27 03:13:56;;;;;;;14.15;4.72;;;;;;;;;;5062113;28;20985;-65
2024/01/27 03:16:21;;;;;;;11.27;5.13;;;;;;;;;;5059746;28;20027;-65
2024/01/27 03:18:46;;;;;;;13.02;4.25;;;;;;;;;;5063282;28;20975;-65
2024/01/27 03:21:11;;;;;;;10.57;5.43;;;;;;;;;;5061905;28;20813;-65
2024/01/27 03:23:37;;;;;;;9.50;3.63;;;;;;;;;;5051019;28;20905;-65
2024/01/27 03:26:03;;;;;;;13.40;4.77;;;;;;;;;;5050777;28;20027;-65
2024/01/27 03:28:29;;;;;;;9.48;4.57;;;;;;;;;;5050298;28;20274;-65
2024/01/27 03:30:54;;;;;;;12.38;5.32;;;;;;;;;;5062114;28;20058;-65
2024/01/27 03:33:19;;;;;;;12.20;4.57;;;;;;;;;;5051737;28;20151;-65
2024/01/27 03:35:44;;;;;;;14.88;5.20;;;;;;;;;;5059185;28;20079;-65
2024/01/27 03:38:10;;;;;;;13.85;5.00;;;;;;;;;;5058043;28;20024;-65
2024/01/27 03:40:35;;;;;;;7.90;4.00;;;;;;;;;;5055408;28;20896;-65
2024/01/27 03:43:00;;;;;;;9.27;4.60;;;;;;;;;;5064966;28;20868;-65
2024/01/27 03:45:25;;;;;;;17.20;5.10;;;;;;;;;;5065085;28;20069;-64
2024/01/27 03:47:51;;;;;;;13.38;4.68;;;;;;;;;;5062997;28;20070;-63
2024/01/27 03:50:16;;;;;;;13.35;5.07;;;;;;;;;;5062255;28;20968;-63
2024/01/27 03:52:41;;;;;;;12.07;4.88;;;;;;;;;;5056656;28;20849;-64
2024/01/27 03:55:06;;;;;;;17.80;5.22;;;;;;;;;;5055475;28;20135;-63
2024/01/27 03:57:32;;;;;;;10.85;4.93;;;;;;;;;;5050675;28;20796;-65
2024/01/27 03:59:57;;;;;;;12.30;4.82;;;;;;;;;;5057999;28;20796;-63
2024/01/27 04:02:22;;;;;;;17.35;5.47;;;;;;;;;;5051455;28;20115;-63
2024/01/27 04:04:47;;;;;;;17.42;5.95;;;;;;;;;;5065761;28;20205;-65
2024/01/27 04:07:12;;;;;;;14.05;5.38;;;;;;;;;;5066147;28;20027;-63
2024/01/27 04:09:38;;;;;;;17.38;5.78;;;;;;;;;;5054474;28;20026;-64
2024/01/27 04:12:03;;;;;;;17.17;5.53;;;;;;;;;;5052042;28;20101;-65
2024/01/27 04:14:28;;;;;;;14.25;4.60;;;;;;;;;;5062914;28;20019;-66
2024/01/27 04:16:53;;;;;;;19.05;5.38;;;;;;;;;;5059252;28;20831;-66
2024/01/27 04:19:19;;;;;;;19.73;6.55;;;;;;;;;;5059736;28;20031;-66
2024/01/27 04:21:44;;;;;;;12.38;5.50;;;;;;;;;;5063454;28;20031;-66
2024/01/27 04:24:09;;;;;;;12.55;4.78;;;;;;;;;;5062795;28;20177;-67
2024/01/27 04:26:34;;;;;;;11.90;4.25;;;;;;;;;;5062897;28;20150;-66
2024/01/27 04:29:00;;;;;;;10.88;4.60;;;;;;;;;;5060887;28;20900;-65
2024/01/27 04:31:25;;;;;;;20.35;5.30;;;;;;;;;;5058518;28;20027;-66
2024/01/27 04:33:50;;;;;;;11.70;4.85;;;;;;;;;;5063919;28;20081;-66
2024/01/27 04:36:24;;;;;;;19.02;5.47;;;;;;;;;;5052835;28;20043;-66
2024/01/27 04:38:49;;;;;;;12.82;5.65;;;;;;;;;;5052996;28;20142;-66
2024/01/27 04:41:15;;;;;;;10.98;4.70;;;;;;;;;;5052665;28;20020;-66
2024/01/27 04:43:40;;;;;;;14.13;4.72;;;;;;;;;;5062257;28;20020;-66
2024/01/27 04:46:05;;;;;;;14.85;4.93;;;;;;;;;;5058851;28;20027;-66
2024/01/27 04:48:30;;;;;;;15.05;5.45;;;;;;;;;;5063158;28;20876;-66
2024/01/27 04:50:56;;;;;;;15.27;4.38;;;;;;;;;;5055172;28;20024;-66
2024/01/27 04:53:21;;;;;;;11.23;4.97;;;;;;;;;;5056528;28;20020;-66
2024/01/27 04:55:46;;;;;;;12.67;5.37;;;;;;;;;;5051734;28;20139;-66
2024/01/27 04:58:12;;;;;;;14.90;5.68;;;;;;;;;;5057575;28;20292;-66
2024/01/27 05:00:37;;;;;;;13.90;5.00;;;;;;;;;;5062978;28;20958;-66
2024/01/27 05:03:04;;;;;;;15.30;5.13;;;;;;;;;;5059582;28;20056;-66
2024/01/27 05:05:30;;;;;;;11.05;5.38;;;;;;;;;;5050366;28;20097;-66
2024/01/27 05:07:55;;;;;;;18.17;5.68;;;;;;;;;;5050306;28;20032;-68
2024/01/27 05:10:22;;;;;;;13.02;5.15;;;;;;;;;;5062536;28;20887;-66
2024/01/27 05:12:47;;;;;;;13.00;4.60;;;;;;;;;;5050117;28;20058;-66
2024/01/27 05:15:12;;;;;;;11.80;5.50;;;;;;;;;;5042590;28;20020;-66
2024/01/27 05:17:38;;;;;;;12.13;6.00;;;;;;;;;;5064659;28;20031;-66
2024/01/27 05:20:04;;;;;;;14.68;4.88;;;;;;;;;;5063148;28;20023;-66
2024/01/27 05:22:29;;;;;;;8.27;4.57;;;;;;;;;;5063310;28;20022;-67
2024/01/27 05:24:54;;;;;;;17.67;6.15;;;;;;;;;;5064253;28;20039;-64
2024/01/27 05:27:20;;;;;;;11.10;5.25;;;;;;;;;;5059476;28;20134;-63
2024/01/27 05:29:45;;;;;;;15.90;5.13;;;;;;;;;;5055376;28;20073;-63
2024/01/27 05:32:10;;;;;;;13.07;5.32;;;;;;;;;;5059359;28;20031;-63
2024/01/27 05:34:35;;;;;;;14.75;5.65;;;;;;;;;;5058103;28;20054;-63
2024/01/27 05:37:01;;;;;;;19.25;5.65;;;;;;;;;;5057682;28;20065;-63
2024/01/27 05:39:26;;;;;;;13.38;5.90;;;;;;;;;;5051234;28;21029;-63
2024/01/27 05:41:51;;;;;;;16.77;6.18;;;;;;;;;;5055627;28;20028;-63
2024/01/27 05:44:16;;;;;;;15.10;5.35;;;;;;;;;;5064026;28;20988;-63
2024/01/27 05:46:42;;;;;;;13.20;5.65;;;;;;;;;;5062812;28;20024;-63
2024/01/27 05:49:07;;;;;;;15.52;6.22;;;;;;;;;;5054575;28;20493;-63
2024/01/27 05:51:33;;;;;;;24.23;6.55;;;;;;;;;;5059094;28;20808;-64
2024/01/27 05:53:58;;;;;;;18.35;6.05;;;;;;;;;;5056485;28;20024;-63
2024/01/27 05:56:24;;;;;;;18.92;6.95;;;;;;;;;;5054820;28;20101;-63
2024/01/27 05:58:49;;;;;;;15.15;6.00;;;;;;;;;;5056062;28;20024;-63
2024/01/27 06:01:14;;;;;;;16.17;6.05;;;;;;;;;;5061181;28;20031;-65
2024/01/27 06:03:43;;;;;;;25.17;6.88;;;;;;;;;;5058956;28;20105;-65
2024/01/27 06:06:08;;;;;;;20.42;5.82;;;;;;;;;;5048241;28;20020;-64
2024/01/27 06:08:33;;;;;;;19.88;6.72;;;;;;;;;;5047575;28;20140;-64
2024/01/27 06:10:59;;;;;;;13.80;6.00;;;;;;;;;;5060357;28;20023;-63
2024/01/27 06:13:24;;;;;;;17.10;7.20;;;;;;;;;;5048796;28;20019;-63
2024/01/27 06:15:50;;;;;;;18.55;7.57;;;;;;;;;;5060846;28;20266;-64
2024/01/27 06:18:15;;;;;;;18.00;6.07;;;;;;;;;;5055282;28;20026;-64
2024/01/27 06:20:41;;;;;;;16.13;6.05;;;;;;;;;;5061995;28;20027;-64
2024/01/27 06:23:06;;;;;;;16.30;7.15;;;;;;;;;;5060861;28;20027;-65
2024/01/27 06:25:32;;;;;;;17.08;6.63;;;;;;;;;;5063701;28;20081;-65
2024/01/27 06:27:57;;;;;;;18.45;6.88;;;;;;;;;;5064895;28;20057;-65
2024/01/27 06:30:22;;;;;;;15.40;5.95;;;;;;;;;;5059524;28;20032;-65
2024/01/27 06:32:48;;;;;;;16.15;5.80;;;;;;;;;;5051398;28;20020;-65
2024/01/27 06:35:13;;;;;;;14.23;5.82;;;;;;;;;;5062602;28;20036;-65
2024/01/27 06:37:38;;;;;;;22.48;6.25;;;;;;;;;;5061697;28;20028;-64
2024/01/27 06:40:04;;;;;;;19.40;6.57;;;;;;;;;;5063059;28;20934;-64
2024/01/27 06:42:29;;;;;;;21.33;6.72;;;;;;;;;;5050886;28;20141;-65
2024/01/27 06:44:55;;;;;;;15.75;6.13;;;;;;;;;;5057764;28;20024;-66
2024/01/27 06:47:20;;;;;;;13.77;6.10;;;;;;;;;;5050294;28;20092;-65
2024/01/27 06:49:45;;;;;;;16.10;5.97;;;;;;;;;;5058643;28;20027;-65
2024/01/27 06:52:12;;;;;;;21.02;6.70;;;;;;;;;;5058503;28;20041;-66
2024/01/27 06:54:41;;;;;;;13.05;6.57;;;;;;;;;;5056068;28;20479;-66
2024/01/27 06:57:06;;;;;;;24.98;7.05;;;;;;;;;;5049910;28;20079;-66
2024/01/27 06:59:31;;;;;;;22.88;6.18;;;;;;;;;;5057105;28;20740;-66
2024/01/27 07:01:56;;;;;;;22.58;6.75;;;;;;;;;;5061252;28;20028;-65
2024/01/27 07:04:23;;;;;;;19.80;6.68;;;;;;;;;;5048425;28;20124;-65
2024/01/27 07:06:48;;;;;;;19.33;5.75;;;;;;;;;;5054311;28;20027;-65
2024/01/27 07:09:13;;;;;;;21.13;7.18;;;;;;;;;;5061699;28;20066;-65
2024/01/27 07:11:38;;;;;;;17.33;6.43;;;;;;;;;;5049200;28;20051;-65
2024/01/27 07:14:04;;;;;;;19.30;6.22;;;;;;;;;;5060619;28;20027;-65
2024/01/27 07:16:29;;;;;;;22.75;8.05;;;;;;;;;;5058174;28;20134;-65
2024/01/27 07:18:55;;;;;;;13.23;6.07;;;;;;;;;;5061257;28;20072;-65
2024/01/27 07:21:20;;;;;;;13.55;6.47;;;;;;;;;;5063000;28;20035;-64
2024/01/27 07:23:45;;;;;;;22.55;6.60;;;;;;;;;;5061266;28;20957;-64
2024/01/27 07:26:11;;;;;;;17.52;6.47;;;;;;;;;;5051132;28;20063;-65
2024/01/27 07:28:36;;;;;;;26.50;6.50;;;;;;;;;;5051297;28;20032;-65
2024/01/27 07:31:01;;;;;;;19.17;6.32;;;;;;;;;;5061988;28;20031;-65
2024/01/27 07:33:27;;;;;;;14.75;7.20;;;;;;;;;;5062042;28;20035;-65
2024/01/27 07:35:52;;;;;;;16.65;7.03;;;;;;;;;;5064785;28;20921;-65
2024/01/27 07:38:17;;;;;;;16.60;6.13;;;;;;;;;;5065485;28;20131;-65
2024/01/27 07:40:42;;;;;;;18.98;6.35;;;;;;;;;;5063146;28;20023;-64
2024/01/27 07:43:08;;;;;;;23.10;7.10;;;;;;;;;;5062094;28;20121;-64
2024/01/27 07:45:33;;;;;;;16.65;6.90;;;;;;;;;;5050131;28;20024;-64
2024/01/27 07:47:58;;;;;;;27.88;8.23;;;;;;;;;;5060656;28;20027;-64
2024/01/27 07:50:23;;;;;;;15.32;6.68;;;;;;;;;;5054832;28;20024;-64
2024/01/27 07:52:49;;;;;;;17.20;6.38;;;;;;;;;;5065191;28;20092;-64
2024/01/27 07:55:14;;;;;;;17.35;6.40;;;;;;;;;;5065716;28;20958;-64
2024/01/27 07:57:39;;;;;;;16.95;6.97;;;;;;;;;;5054022;28;20920;-64
2024/01/27 08:00:06;;;;;;;14.35;6.05;;;;;;;;;;5065660;28;20027;-64
2024/01/27 08:02:31;;;;;;;17.38;6.82;;;;;;;;;;5059187;28;20556;-64
2024/01/27 08:04:57;;;;;;;24.60;7.55;;;;;;;;;;5061326;28;20027;-64
2024/01/27 08:07:23;;;;;;;20.00;6.70;;;;;;;;;;5053298;28;20057;-64
2024/01/27 08:09:48;;;;;;;21.00;6.25;;;;;;;;;;5052092;28;20138;-64
2024/01/27 08:12:13;;;;;;;13.18;5.78;;;;;;;;;;5061696;28;20979;-64
2024/01/27 08:14:39;;;;;;;13.00;6.03;;;;;;;;;;5055417;28;20028;-65
2024/01/27 08:17:04;;;;;;;18.48;6.75;;;;;;;;;;5051291;28;20040;-64
2024/01/27 08:19:30;;;;;;;14.48;6.07;;;;;;;;;;5051070;28;20081;-66
2024/01/27 08:21:55;;;;;;;14.45;5.85;;;;;;;;;;5053751;28;20027;-64
2024/01/27 08:24:22;;;;;;;12.40;5.53;;;;;;;;;;5063225;28;20138;-64
2024/01/27 08:26:48;;;;;;;18.77;5.95;;;;;;;;;;5050958;28;20031;-64
2024/01/27 08:29:13;;;;;;;14.20;5.93;;;;;;;;;;5058120;28;20035;-64
2024/01/27 08:31:38;;;;;;;15.60;6.47;;;;;;;;;;5047183;28;20603;-64
2024/01/27 08:34:03;;;;;;;11.48;5.60;;;;;;;;;;5061324;28;20066;-64
2024/01/27 08:36:29;;;;;;;18.10;6.35;;;;;;;;;;5063337;28;20028;-64
2024/01/27 08:38:54;;;;;;;11.30;5.07;;;;;;;;;;5057972;28;20870;-63
2024/01/27 08:41:20;;;;;;;17.83;6.57;;;;;;;;;;5049101;28;21106;-64
2024/01/27 08:43:45;;;;;;;14.48;5.47;;;;;;;;;;5063184;28;20566;-64
2024/01/27 08:46:12;;;;;;;15.38;5.68;;;;;;;;;;5036638;28;20094;-64
2024/01/27 08:48:40;;;;;;;18.33;6.15;;;;;;;;;;5063987;28;20019;-64
2024/01/27 08:51:05;;;;;;;12.85;5.38;;;;;;;;;;5058117;28;20020;-64
2024/01/27 08:53:30;;;;;;;13.52;5.10;;;;;;;;;;5050906;28;20043;-64
2024/01/27 08:55:55;;;;;;;16.55;5.25;;;;;;;;;;5054357;28;20040;-64
2024/01/27 08:58:21;;;;;;;12.07;5.88;;;;;;;;;;5050798;28;21089;-64
2024/01/27 09:00:46;;;;;;;12.98;5.00;;;;;;;;;;5059656;28;20024;-64
2024/01/27 09:03:12;;;;;;;18.25;6.18;;;;;;;;;;5059786;28;20028;-64
2024/01/27 09:05:37;;;;;;;14.82;4.97;;;;;;;;;;5054273;28;20031;-64
2024/01/27 09:08:03;;;;;;;14.25;5.47;;;;;;;;;;5051094;28;20976;-64
2024/01/27 09:10:28;;;;;;;11.40;5.30;;;;;;;;;;5061431;28;20024;-64
2024/01/27 09:12:54;;;;;;;8.93;4.50;;;;;;;;;;5055878;28;20112;-64
2024/01/27 09:15:19;;;;;;;14.83;5.03;;;;;;;;;;5052972;28;20761;-64
2024/01/27 09:17:44;;;;;;;12.45;5.00;;;;;;;;;;5060701;28;21125;-64
2024/01/27 09:20:10;;;;;;;11.90;4.70;;;;;;;;;;5059080;28;20039;-64
2024/01/27 09:22:35;;;;;;;13.98;4.53;;;;;;;;;;5063725;28;20024;-64
2024/01/27 09:25:00;;;;;;;13.05;4.53;;;;;;;;;;5056904;28;20969;-64
2024/01/27 09:27:25;;;;;;;12.40;4.50;;;;;;;;;;5058812;28;20805;-64
2024/01/27 09:29:50;;;;;;;11.30;4.15;;;;;;;;;;5051752;28;21032;-64
2024/01/27 09:32:16;;;;;;;16.00;4.72;;;;;;;;;;5060115;28;20078;-64
2024/01/27 09:34:41;;;;;;;12.05;3.63;;;;;;;;;;5063151;28;20071;-64
2024/01/27 09:37:06;;;;;;;12.77;4.68;;;;;;;;;;5057284;28;20047;-64
2024/01/27 09:39:32;;;;;;;12.82;4.53;;;;;;;;;;5056816;28;20865;-64
2024/01/27 09:41:58;;;;;;;8.93;3.03;;;;;;;;;;5054559;28;20813;-64
2024/01/27 09:44:23;;;;;;;9.45;3.88;;;;;;;;;;5058340;28;20865;-64
2024/01/27 09:46:49;;;;;;;7.65;3.00;;;;;;;;;;5055069;28;20142;-64
2024/01/27 09:49:14;;;;;;;12.13;3.65;;;;;;;;;;5060510;28;20016;-64
2024/01/27 09:51:43;;;;;;;11.63;3.22;;;;;;;;;;5054228;28;20883;-64
2024/01/27 09:54:08;;;;;;;8.27;3.10;;;;;;;;;;5059691;28;20804;-64
2024/01/27 09:56:33;;;;;;;9.32;3.70;;;;;;;;;;5052686;28;20056;-64
2024/01/27 09:58:59;;;;;;;12.07;3.92;;;;;;;;;;5057281;28;20031;-64
2024/01/27 10:01:25;;;;;;;6.70;3.22;;;;;;;;;;5060892;28;20031;-64
2024/01/27 10:03:51;;;;;;;11.20;3.60;;;;;;;;;;5058227;28;20055;-64
2024/01/27 10:06:17;;;;;;;7.30;3.50;;;;;;;;;;5054453;28;20034;-64
2024/01/27 10:08:51;;;;;;;9.93;2.97;;;;;;;;;;5058230;28;20067;-65
2024/01/27 10:11:17;;;;;;;7.63;3.42;;;;;;;;;;5060270;28;20031;-64
2024/01/27 10:13:42;;;;;;;8.13;2.80;;;;;;;;;;5056565;28;20950;-64
2024/01/27 10:16:09;;;;;;;9.23;3.00;;;;;;;;;;5056187;28;20053;-64
2024/01/27 10:18:35;;;;;;;13.75;3.22;;;;;;;;;;5060921;28;20862;-64
2024/01/27 10:21:11;;;;;;;11.02;2.83;;;;;;;;;;5056100;28;20027;-64
2024/01/27 10:23:38;;;;;;;9.80;2.70;;;;;;;;;;5057541;28;20020;-64
2024/01/27 10:26:04;;;;;;;8.75;2.55;;;;;;;;;;5049490;28;20040;-64
2024/01/27 10:28:29;;;;;;;6.20;2.45;;;;;;;;;;5056641;28;20078;-64
2024/01/27 10:30:54;;;;;;;6.80;1.98;;;;;;;;;;5052579;28;20982;-64
2024/01/27 10:33:20;;;;;;;6.47;2.45;;;;;;;;;;5059879;28;20047;-64
2024/01/27 10:35:45;;;;;;;8.68;2.88;;;;;;;;;;5058005;28;20941;-64
2024/01/27 10:38:10;;;;;;;9.43;2.85;;;;;;;;;;5062443;28;20047;-64
2024/01/27 10:40:36;;;;;;;9.05;2.65;;;;;;;;;;5051949;28;20058;-64
2024/01/27 10:43:02;;;;;;;5.70;2.35;;;;;;;;;;5050196;28;20020;-66
2024/01/27 10:45:29;;;;;;;8.30;2.40;;;;;;;;;;5056277;28;20053;-64
2024/01/27 10:47:56;;;;;;;10.25;2.60;;;;;;;;;;5053946;28;20031;-64
2024/01/27 10:50:23;;;;;;;7.60;2.33;;;;;;;;;;5054236;28;20027;-64
2024/01/27 10:52:49;;;;;;;6.95;1.98;;;;;;;;;;5058412;28;20045;-64
2024/01/27 10:55:15;;;;;;;11.38;2.33;;;;;;;;;;5057884;28;20024;-64
2024/01/27 10:57:41;;;;;;;5.32;1.70;;;;;;;;;;5050510;28;20050;-64
2024/01/27 11:00:08;;;;;;;5.78;1.55;;;;;;;;;;5052319;28;20019;-65
2024/01/27 11:02:33;;;;;;;5.18;1.77;;;;;;;;;;5061948;28;20263;-64
2024/01/27 11:05:01;;;;;;;7.18;2.30;;;;;;;;;;5058166;28;20522;-64
2024/01/27 11:07:27;;;;;;;9.82;2.33;;;;;;;;;;5052440;28;20872;-64
2024/01/27 11:09:52;;;;;;;7.78;1.98;;;;;;;;;;5054645;28;20069;-64
2024/01/27 11:12:19;;;;;;;6.32;2.35;;;;;;;;;;5058310;28;20853;-64
2024/01/27 11:14:45;;;;;;;5.53;1.75;;;;;;;;;;5058888;28;20020;-64
2024/01/27 11:17:10;;;;;;;8.82;1.90;;;;;;;;;;5061968;28;20024;-64
2024/01/27 11:19:36;;;;;;;7.00;2.13;;;;;;;;;;5065906;28;20031;-64
2024/01/27 11:22:02;;;;;;;9.07;2.42;;;;;;;;;;5057198;28;20031;-64
2024/01/27 11:24:27;;;;;;;11.95;2.45;;;;;;;;;;5055650;28;20795;-64
2024/01/27 11:27:05;;;;;;;9.80;2.20;;;;;;;;;;5056059;28;20058;-64
2024/01/27 11:29:34;;;;;;;5.75;1.85;;;;;;;;;;5054092;28;20419;-64
2024/01/27 11:32:00;;;;;;;5.57;1.85;;;;;;;;;;5058947;28;20039;-64
2024/01/27 11:34:26;;;;;;;7.03;1.85;;;;;;;;;;5059271;28;20084;-64
2024/01/27 11:36:51;;;;;;;5.18;1.70;;;;;;;;;;5054305;28;20040;-64
2024/01/27 11:39:29;;;;;;;8.32;1.92;;;;;;;;;;5052087;28;20020;-64
2024/01/27 11:42:04;;;;;;;10.20;2.10;;;;;;;;;;5058954;28;20964;-64
2024/01/27 11:44:29;;;;;;;4.28;1.77;;;;;;;;;;5063882;28;20033;-64
2024/01/27 11:46:55;;;;;;;9.27;2.35;;;;;;;;;;5062091;28;20027;-64
2024/01/27 11:49:20;;;;;;;5.00;2.00;;;;;;;;;;5054465;28;20859;-64
2024/01/27 11:51:46;;;;;;;5.78;1.80;;;;;;;;;;5059534;28;21206;-64
2024/01/27 11:54:11;;;;;;;8.45;1.95;;;;;;;;;;5066041;28;20082;-64
2024/01/27 11:56:37;;;;;;;6.85;2.15;;;;;;;;;;5055461;28;20952;-63
2024/01/27 11:59:02;;;;;;;4.30;1.50;;;;;;;;;;5057406;28;20023;-64
2024/01/27 12:01:27;;;;;;;7.72;1.55;;;;;;;;;;5052403;28;20020;-64
2024/01/27 12:03:53;;;;;;;5.93;1.70;;;;;;;;;;5052010;28;20043;-64
2024/01/27 12:06:18;;;;;;;5.80;1.75;;;;;;;;;;5051404;28;20052;-63
2024/01/27 12:08:47;;;;;;;5.97;1.60;;;;;;;;;;5058696;28;20885;-64
2024/01/27 12:11:13;;;;;;;5.07;1.85;;;;;;;;;;5051144;28;20012;-64
2024/01/27 12:13:38;;;;;;;8.45;1.88;;;;;;;;;;5062977;28;20031;-64
2024/01/27 12:16:03;;;;;;;5.60;1.90;;;;;;;;;;5061327;28;20066;-64
2024/01/27 12:18:29;;;;;;;5.85;1.83;;;;;;;;;;5060049;28;20883;-64
2024/01/27 12:20:55;;;;;;;10.50;2.50;;;;;;;;;;5053967;28;20426;-64
2024/01/27 12:23:21;;;;;;;6.70;1.27;;;;;;;;;;5056717;28;20023;-64
2024/01/27 12:25:52;;;;;;;8.53;1.73;;;;;;;;;;5063581;28;20023;-64
2024/01/27 12:28:19;;;;;;;4.55;1.55;;;;;;;;;;5058997;28;21118;-65
2024/01/27 12:30:44;;;;;;;8.30;1.90;;;;;;;;;;5051388;28;20030;-63
2024/01/27 12:33:11;;;;;;;6.57;1.80;;;;;;;;;;5057710;28;20031;-65
2024/01/27 12:35:37;;;;;;;7.55;2.10;;;;;;;;;;5066045;28;20272;-63
2024/01/27 12:38:02;;;;;;;5.35;1.95;;;;;;;;;;5045641;28;20813;-63
2024/01/27 12:40:28;;;;;;;10.73;1.77;;;;;;;;;;5063131;28;21345;-63
2024/01/27 12:42:53;;;;;;;8.60;2.25;;;;;;;;;;5053967;28;20056;-63
2024/01/27 12:45:19;;;;;;;6.00;1.75;;;;;;;;;;5055462;28;20497;-65
2024/01/27 12:47:44;;;;;;;6.00;1.55;;;;;;;;;;5054743;28;20138;-63
2024/01/27 12:50:09;;;;;;;7.57;1.85;;;;;;;;;;5056446;28;20034;-63
2024/01/27 12:52:35;;;;;;;4.18;1.38;;;;;;;;;;5064615;28;20022;-65
2024/01/27 12:55:00;;;;;;;7.45;2.17;;;;;;;;;;5053223;28;20963;-66
2024/01/27 12:57:25;;;;;;;7.95;1.75;;;;;;;;;;5056636;28;20066;-67
2024/01/27 12:59:51;;;;;;;7.28;1.52;;;;;;;;;;5059330;28;20139;-65
2024/01/27 13:02:16;;;;;;;7.35;1.48;;;;;;;;;;5059881;28;20038;-65
2024/01/27 13:04:42;;;;;;;4.70;1.70;;;;;;;;;;5052327;28;20408;-65
2024/01/27 13:07:07;;;;;;;5.07;1.45;;;;;;;;;;5061880;28;20096;-65
2024/01/27 13:09:33;;;;;;;3.10;1.17;;;;;;;;;;5058951;28;20841;-65
2024/01/27 13:11:58;;;;;;;5.22;1.20;;;;;;;;;;5056041;28;20185;-65
2024/01/27 13:14:23;;;;;;;4.90;1.48;;;;;;;;;;5055617;28;20452;-65
2024/01/27 13:16:48;;;;;;;6.82;1.20;;;;;;;;;;5058115;28;20133;-65
2024/01/27 13:19:14;;;;;;;3.83;1.20;;;;;;;;;;5060265;28;20941;-65
2024/01/27 13:21:40;;;;;;;5.68;1.50;;;;;;;;;;5058902;28;21181;-65
2024/01/27 13:24:08;;;;;;;7.53;1.88;;;;;;;;;;5057165;28;20024;-65
2024/01/27 13:26:37;;;;;;;7.45;2.00;;;;;;;;;;5059979;28;20938;-65
2024/01/27 13:29:03;;;;;;;4.97;1.17;;;;;;;;;;5061071;28;20083;-64
2024/01/27 13:31:28;;;;;;;8.82;1.42;;;;;;;;;;5060446;28;20488;-64
2024/01/27 13:33:54;;;;;;;11.30;1.60;;;;;;;;;;5062391;28;20302;-65
2024/01/27 13:36:19;;;;;;;5.40;1.73;;;;;;;;;;5056448;28;21062;-65
2024/01/27 13:38:44;;;;;;;8.35;1.85;;;;;;;;;;5052407;28;20030;-65
2024/01/27 13:41:09;;;;;;;6.10;1.60;;;;;;;;;;5058869;28;20926;-65
2024/01/27 13:43:35;;;;;;;5.70;1.48;;;;;;;;;;5060028;28;20338;-65
2024/01/27 13:46:00;;;;;;;8.63;1.65;;;;;;;;;;5053790;28;20082;-65
2024/01/27 13:48:25;;;;;;;5.30;0.90;;;;;;;;;;5051673;28;20846;-65
2024/01/27 13:50:52;;;;;;;3.90;1.02;;;;;;;;;;5056885;28;20864;-65
2024/01/27 13:53:17;;;;;;;5.10;1.20;;;;;;;;;;5058523;28;20024;-65
2024/01/27 13:55:44;;;;;;;5.67;1.90;;;;;;;;;;5055553;28;20033;-63
2024/01/27 13:58:09;;;;;;;9.30;1.77;;;;;;;;;;5050978;28;21200;-65
2024/01/27 14:00:35;;;;;;;7.18;1.52;;;;;;;;;;5056645;28;20016;-65
2024/01/27 14:03:00;;;;;;;4.38;1.40;;;;;;;;;;5047524;28;20228;-65
2024/01/27 14:05:25;;;;;;;6.13;1.47;;;;;;;;;;5060325;28;20540;-65
2024/01/27 14:07:51;;;;;;;2.90;1.17;;;;;;;;;;5058731;28;21225;-65
2024/01/27 14:10:16;;;;;;;7.50;1.42;;;;;;;;;;5048841;28;21026;-65
2024/01/27 14:12:42;;;;;;;5.33;1.20;;;;;;;;;;5055818;28;20028;-66
2024/01/27 14:15:08;;;;;;;9.57;3.65;;;;;;;;;;5061553;28;20281;-65
2024/01/27 14:17:35;;;;;;;4.35;1.85;;;;;;;;;;5056150;28;20038;-66
2024/01/27 14:20:01;;;;;;;3.65;1.35;;;;;;;;;;5060184;28;20030;-65
2024/01/27 14:22:26;;;;;;;11.88;6.13;;;;;;;;;;5061105;28;20024;-66
2024/01/27 14:24:51;;;;;;;7.80;4.35;;;;;;;;;;5052621;28;20035;-66